createdAt,value
2022-09-05T00:00:11.925Z,87.44
2022-09-05T00:01:39.547Z,86.61
2022-09-05T00:03:00.527Z,86.86
2022-09-05T00:04:23.577Z,86.63
2022-09-05T00:05:44.240Z,86.58
2022-09-05T00:07:06.749Z,87.72
2022-09-05T00:08:25.397Z,86.30
2022-09-05T00:09:49.051Z,85.82
2022-09-05T00:11:41.157Z,85.71
2022-09-05T00:12:39.442Z,85.73
2022-09-05T00:13:48.015Z,85.80
2022-09-05T00:15:16.423Z,85.17
2022-09-05T00:16:25.281Z,84.13
2022-09-05T00:18:26.274Z,84.18
2022-09-05T00:24:19.237Z,83.82
2022-09-05T00:24:25.115Z,83.40
2022-09-05T00:24:28.689Z,83.22
2022-09-05T00:25:14.040Z,83.19
2022-09-05T00:26:49.978Z,83.29
2022-09-05T00:27:58.237Z,83.03
2022-09-05T00:29:28.876Z,83.60
2022-09-05T00:31:51.938Z,83.13
2022-09-05T00:32:33.676Z,83.94
2022-09-05T00:33:55.550Z,83.74
2022-09-05T00:35:28.249Z,83.11
2022-09-05T00:36:45.318Z,83.33
2022-09-05T00:37:49.471Z,83.03
2022-09-05T00:39:01.581Z,83.50
2022-09-05T00:40:22.554Z,83.08
2022-09-05T00:41:24.878Z,83.48
2022-09-05T00:42:26.537Z,82.93
2022-09-05T00:43:35.025Z,82.94
2022-09-05T00:44:54.766Z,82.92
2022-09-05T00:45:59.137Z,82.94
2022-09-05T00:47:18.359Z,83.13
2022-09-05T00:48:31.870Z,83.08
2022-09-05T00:49:43.596Z,83.67
2022-09-05T00:50:45.148Z,83.54
2022-09-05T00:52:00.645Z,83.14
2022-09-05T00:53:22.027Z,83.07
2022-09-05T00:54:26.355Z,83.13
2022-09-05T00:55:58.774Z,83.26
2022-09-05T00:57:22.223Z,83.02
2022-09-05T00:58:42.440Z,83.45
2022-09-05T01:00:16.965Z,83.35
2022-09-05T01:01:29.822Z,83.79
2022-09-05T01:02:33.368Z,83.44
2022-09-05T01:04:00.970Z,83.05
2022-09-05T01:05:23.159Z,83.95
2022-09-05T01:07:02.126Z,83.80
2022-09-05T01:08:06.783Z,83.78
2022-09-05T01:09:26.136Z,83.74
2022-09-05T01:10:48.312Z,83.87
2022-09-05T01:11:59.526Z,83.63
2022-09-05T01:13:13.378Z,83.96
2022-09-05T01:14:46.495Z,83.25
2022-09-05T01:15:57.096Z,83.46
2022-09-05T01:17:04.534Z,83.08
2022-09-05T01:18:10.073Z,82.97
2022-09-05T01:19:38.017Z,83.83
2022-09-05T01:21:10.838Z,83.29
2022-09-05T01:22:38.902Z,83.14
2022-09-05T01:23:55.638Z,83.68
2022-09-05T01:25:18.463Z,82.97
2022-09-05T01:26:26.203Z,83.01
2022-09-05T01:29:12.910Z,83.45
2022-09-05T01:29:25.528Z,83.70
2022-09-05T01:31:08.910Z,83.15
2022-09-05T01:32:41.597Z,83.29
2022-09-05T01:34:04.962Z,83.55
2022-09-05T01:35:28.364Z,83.70
2022-09-05T01:36:51.815Z,83.80
2022-09-05T01:38:07.656Z,84.27
2022-09-05T01:40:11.201Z,83.54
2022-09-05T01:40:46.923Z,83.12
2022-09-05T01:42:25.785Z,83.28
2022-09-05T01:43:52.597Z,82.90
2022-09-05T01:45:04.437Z,83.22
2022-09-05T01:46:31.519Z,83.23
2022-09-05T01:47:54.773Z,83.34
2022-09-05T01:49:25.749Z,83.54
2022-09-05T01:50:50.501Z,83.74
2022-09-05T01:52:30.769Z,83.92
2022-09-05T01:53:46.447Z,83.34
2022-09-05T01:55:19.980Z,83.73
2022-09-05T01:56:31.599Z,83.65
2022-09-05T01:58:17.072Z,83.78
2022-09-05T01:59:30.873Z,83.44
2022-09-05T02:00:56.608Z,83.53
2022-09-05T02:02:50.289Z,83.68
2022-09-05T02:04:18.110Z,83.83
2022-09-05T02:05:48.163Z,83.69
2022-09-05T02:07:22.491Z,84.15
2022-09-05T02:08:48.262Z,83.96
2022-09-05T02:09:49.743Z,84.19
2022-09-05T02:11:14.914Z,84.77
2022-09-05T02:12:16.645Z,84.65
2022-09-05T02:13:33.414Z,84.33
2022-09-05T02:14:45.583Z,84.51
2022-09-05T02:16:00.232Z,84.53
2022-09-05T02:17:31.981Z,84.19
2022-09-05T02:19:01.169Z,84.67
2022-09-05T02:20:35.269Z,84.05
2022-09-05T02:21:56.692Z,83.65
2022-09-05T02:23:32.668Z,83.67
2022-09-05T02:24:34.512Z,83.84
2022-09-05T02:26:26.106Z,82.85
2022-09-05T02:28:05.879Z,82.56
2022-09-05T02:29:35.254Z,83.10
2022-09-05T02:30:47.408Z,83.37
2022-09-05T02:32:21.929Z,82.85
2022-09-05T02:33:36.414Z,82.84
2022-09-05T02:34:43.650Z,82.51
2022-09-05T02:36:00.224Z,82.66
2022-09-05T02:37:21.524Z,82.31
2022-09-05T02:44:39.462Z,82.71
2022-09-05T02:45:10.845Z,82.20
2022-09-05T02:45:19.504Z,82.56
2022-09-05T02:45:21.235Z,83.03
2022-09-05T02:45:43.535Z,83.02
2022-09-05T02:46:48.293Z,82.88
2022-09-05T02:48:15.398Z,83.72
2022-09-05T02:53:13.878Z,82.63
2022-09-05T02:56:18.517Z,82.55
2022-09-05T02:57:30.282Z,82.30
2022-09-05T02:57:42.130Z,82.03
2022-09-05T02:58:04.260Z,82.21
2022-09-05T02:58:04.817Z,82.17
2022-09-05T02:59:10.314Z,81.82
2022-09-05T03:00:18.527Z,82.58
2022-09-05T03:01:31.731Z,82.78
2022-09-05T03:02:53.211Z,82.51
2022-09-05T03:04:21.899Z,83.23
2022-09-05T03:05:29.735Z,83.11
2022-09-05T03:06:48.534Z,82.95
2022-09-05T03:08:19.425Z,82.91
2022-09-05T03:09:38.409Z,83.35
2022-09-05T03:11:04.330Z,83.78
2022-09-05T03:12:29.388Z,83.40
2022-09-05T03:14:08.515Z,83.65
2022-09-05T03:15:22.264Z,83.59
2022-09-05T03:16:52.941Z,83.38
2022-09-05T03:18:20.587Z,83.36
2022-09-05T03:19:56.880Z,82.93
2022-09-05T03:21:09.187Z,82.87
2022-09-05T03:22:17.373Z,83.05
2022-09-05T03:24:01.918Z,83.08
2022-09-05T03:25:28.469Z,82.17
2022-09-05T03:27:03.798Z,82.60
2022-09-05T03:28:14.595Z,82.46
2022-09-05T03:29:35.154Z,82.51
2022-09-05T03:31:22.434Z,82.12
2022-09-05T03:32:58.553Z,82.53
2022-09-05T03:34:18.388Z,82.63
2022-09-05T03:35:32.404Z,82.98
2022-09-05T03:36:36.807Z,83.55
2022-09-05T03:37:38.378Z,83.57
2022-09-05T03:38:48.787Z,83.51
2022-09-05T03:40:29.145Z,83.58
2022-09-05T03:42:00.409Z,83.82
2022-09-05T03:43:40.340Z,84.56
2022-09-05T03:45:06.355Z,85.07
2022-09-05T03:46:23.184Z,84.97
2022-09-05T03:48:00.635Z,84.86
2022-09-05T03:53:11.500Z,85.20
2022-09-05T03:57:07.071Z,84.86
2022-09-05T03:57:12.691Z,85.48
2022-09-05T03:57:17.060Z,85.58
2022-09-05T03:57:26.007Z,85.76
2022-09-05T03:58:55.913Z,86.06
2022-09-05T04:00:09.723Z,86.50
2022-09-05T04:05:15.234Z,86.22
2022-09-05T04:08:10.607Z,86.37
2022-09-05T04:08:14.182Z,86.23
2022-09-05T04:08:17.690Z,86.59
2022-09-05T04:08:38.578Z,86.20
2022-09-05T04:09:51.533Z,86.56
2022-09-05T04:11:01.077Z,86.39
2022-09-05T04:12:18.156Z,86.71
2022-09-05T04:13:35.794Z,86.75
2022-09-05T04:14:53.123Z,87.17
2022-09-05T04:16:16.646Z,87.88
2022-09-05T04:17:43.409Z,87.76
2022-09-05T04:18:48.675Z,87.67
2022-09-05T04:19:55.741Z,88.03
2022-09-05T04:21:05.007Z,88.04
2022-09-05T04:22:22.828Z,88.89
2022-09-05T04:23:45.772Z,88.69
2022-09-05T04:25:04.629Z,88.34
2022-09-05T04:26:15.157Z,88.74
2022-09-05T04:27:40.084Z,88.93
2022-09-05T04:28:56.919Z,88.85
2022-09-05T04:30:01.372Z,88.07
2022-09-05T04:31:24.897Z,87.70
2022-09-05T04:32:35.379Z,87.78
2022-09-05T04:33:54.528Z,87.75
2022-09-05T04:35:06.857Z,87.49
2022-09-05T04:36:30.354Z,87.36
2022-09-05T04:38:13.196Z,87.31
2022-09-05T04:39:17.553Z,87.78
2022-09-05T04:40:38.210Z,88.21
2022-09-05T04:41:44.560Z,88.33
2022-09-05T04:42:46.956Z,88.44
2022-09-05T04:43:51.154Z,88.44
2022-09-05T04:45:03.392Z,89.54
2022-09-05T04:46:19.538Z,90.41
2022-09-05T04:47:29.782Z,90.92
2022-09-05T04:48:41.900Z,91.75
2022-09-05T04:49:52.969Z,91.60
2022-09-05T04:51:12.847Z,91.50
2022-09-05T04:52:32.577Z,91.63
2022-09-05T04:54:00.917Z,91.62
2022-09-05T04:55:13.513Z,92.03
2022-09-05T04:56:20.194Z,92.67
2022-09-05T04:57:33.756Z,93.38
2022-09-05T04:59:41.859Z,93.81
2022-09-05T05:04:49.412Z,94.46
2022-09-05T05:06:14.075Z,97.68
2022-09-05T05:06:16.895Z,97.10
2022-09-05T05:06:18.707Z,96.58
2022-09-05T05:06:42.205Z,98.06
2022-09-05T05:07:57.549Z,99.21
2022-09-05T05:09:12.235Z,99.41
2022-09-05T05:13:56.921Z,99.92
2022-09-05T05:17:53.919Z,100.00
2022-09-05T05:17:58.201Z,100.00
2022-09-05T05:18:04.179Z,100.00
2022-09-05T05:18:15.778Z,100.00
2022-09-05T05:18:36.728Z,100.00
2022-09-05T05:19:47.337Z,100.00
2022-09-05T05:21:21.014Z,100.00
2022-09-05T05:22:22.780Z,100.00
2022-09-05T05:23:41.392Z,100.00
2022-09-05T05:24:50.794Z,100.00
2022-09-05T05:25:57.970Z,100.00
2022-09-05T05:27:17.099Z,100.00
2022-09-05T05:28:27.230Z,100.00
2022-09-05T05:29:47.200Z,100.00
2022-09-05T05:30:50.567Z,100.00
2022-09-05T05:32:00.244Z,100.00
2022-09-05T05:33:22.551Z,100.00
2022-09-05T05:34:27.975Z,100.00
2022-09-05T05:35:33.256Z,100.00
2022-09-05T05:36:50.373Z,100.00
2022-09-05T05:38:20.337Z,100.00
2022-09-05T05:39:28.407Z,100.00
2022-09-05T05:40:37.571Z,100.00
2022-09-05T05:41:54.069Z,100.00
2022-09-05T05:43:15.090Z,100.00
2022-09-05T05:44:20.553Z,100.00
2022-09-05T05:45:32.598Z,100.00
2022-09-05T05:46:38.172Z,100.00
2022-09-05T05:47:45.734Z,100.00
2022-09-05T05:48:55.133Z,100.00
2022-09-05T05:50:04.487Z,100.00
2022-09-05T05:52:02.250Z,100.00
2022-09-05T05:53:32.048Z,100.00
2022-09-05T05:55:27.086Z,100.00
2022-09-05T05:56:41.819Z,100.00
2022-09-05T05:58:17.104Z,100.00
2022-09-05T06:00:15.002Z,100.00
2022-09-05T06:01:44.415Z,100.00
2022-09-05T06:03:25.194Z,99.21
2022-09-05T06:04:46.137Z,97.89
2022-09-05T06:06:12.408Z,96.87
2022-09-05T06:08:10.227Z,97.29
2022-09-05T06:14:37.537Z,97.14
2022-09-05T06:14:57.481Z,96.23
2022-09-05T06:15:00.480Z,94.95
2022-09-05T06:15:09.089Z,93.53
2022-09-05T06:16:32.028Z,93.25
2022-09-05T06:17:52.111Z,91.21
2022-09-05T06:19:36.257Z,87.49
2022-09-05T06:22:11.512Z,85.37
2022-09-05T06:23:37.445Z,81.57
2022-09-05T06:25:26.421Z,76.76
2022-09-05T06:26:49.235Z,71.73
2022-09-05T06:28:18.895Z,69.19
2022-09-05T06:29:42.836Z,66.54
2022-09-05T06:30:59.270Z,65.38
2022-09-05T06:32:58.097Z,61.85
2022-09-05T06:34:58.115Z,59.81
2022-09-05T06:36:10.401Z,59.75
2022-09-05T06:37:27.011Z,58.65
2022-09-05T06:38:37.275Z,56.57
2022-09-05T06:39:54.294Z,56.30
2022-09-05T06:41:38.327Z,56.58
2022-09-05T06:43:01.591Z,54.16
2022-09-05T06:44:19.204Z,53.23
2022-09-05T06:45:33.089Z,52.44
2022-09-05T06:46:55.160Z,52.28
2022-09-05T06:48:46.421Z,53.02
2022-09-05T06:50:27.945Z,50.96
2022-09-05T06:51:29.684Z,51.22
2022-09-05T06:52:59.363Z,51.10
2022-09-05T06:54:27.445Z,50.95
2022-09-05T06:55:54.478Z,50.71
2022-09-05T06:57:11.590Z,50.22
2022-09-05T06:58:50.983Z,48.94
2022-09-05T07:00:22.031Z,50.64
2022-09-05T07:01:32.659Z,49.76
2022-09-05T07:03:28.889Z,48.68
2022-09-05T07:05:36.982Z,48.17
2022-09-05T07:06:04.728Z,49.15
2022-09-05T07:07:22.803Z,49.22
2022-09-05T07:08:37.230Z,46.88
2022-09-05T07:10:22.047Z,46.80
2022-09-05T07:11:38.705Z,46.39
2022-09-05T07:12:51.966Z,46.63
2022-09-05T07:14:00.247Z,45.55
2022-09-05T07:15:08.382Z,45.80
2022-09-05T07:16:26.470Z,45.56
2022-09-05T07:18:13.484Z,46.39
2022-09-05T07:19:25.456Z,44.70
2022-09-05T07:20:34.316Z,43.72
2022-09-05T07:22:44.477Z,43.40
2022-09-05T07:24:02.298Z,44.54
2022-09-05T07:25:09.263Z,43.01
2022-09-05T07:26:20.457Z,45.14
2022-09-05T07:28:29.706Z,42.43
2022-09-05T07:29:19.409Z,43.56
2022-09-05T07:30:23.282Z,44.99
2022-09-05T07:31:37.690Z,45.05
2022-09-05T07:32:46.025Z,42.56
2022-09-05T07:33:51.459Z,42.44
2022-09-05T07:34:53.978Z,41.74
2022-09-05T07:36:05.440Z,42.30
2022-09-05T07:37:16.400Z,43.04
2022-09-05T07:38:26.717Z,43.58
2022-09-05T07:40:02.397Z,40.98
2022-09-05T07:41:28.357Z,42.24
2022-09-05T07:42:43.768Z,41.95
2022-09-05T07:43:57.981Z,40.55
2022-09-05T07:45:06.414Z,39.67
2022-09-05T07:46:23.278Z,41.17
2022-09-05T07:47:24.842Z,41.43
2022-09-05T07:48:34.797Z,41.88
2022-09-05T07:50:13.967Z,42.04
2022-09-05T07:55:45.060Z,40.89
2022-09-05T07:57:05.033Z,41.09
2022-09-05T07:57:06.158Z,40.61
2022-09-05T07:57:09.518Z,39.97
2022-09-05T07:57:26.926Z,40.97
2022-09-05T07:58:17.229Z,40.88
2022-09-05T07:59:20.916Z,40.20
2022-09-05T08:00:29.413Z,40.04
2022-09-05T08:01:32.957Z,41.00
2022-09-05T08:02:47.054Z,40.24
2022-09-05T08:03:56.119Z,41.00
2022-09-05T08:05:04.350Z,41.00
2022-09-05T08:06:10.585Z,41.20
2022-09-05T08:07:45.911Z,40.42
2022-09-05T08:09:21.591Z,40.02
2022-09-05T08:11:15.810Z,40.33
2022-09-05T08:12:09.771Z,40.52
2022-09-05T08:13:23.827Z,40.63
2022-09-05T08:14:48.813Z,41.19
2022-09-05T08:16:10.592Z,39.96
2022-09-05T08:17:19.939Z,39.21
2022-09-05T08:18:50.247Z,39.39
2022-09-05T08:20:23.735Z,37.81
2022-09-05T08:21:49.839Z,37.46
2022-09-05T08:23:04.677Z,37.32
2022-09-05T08:24:24.643Z,37.93
2022-09-05T08:25:57.371Z,37.18
2022-09-05T08:27:02.512Z,37.04
2022-09-05T08:28:06.246Z,37.63
2022-09-05T08:29:27.125Z,38.27
2022-09-05T08:30:33.366Z,37.74
2022-09-05T08:31:42.357Z,37.19
2022-09-05T08:33:10.392Z,36.60
2022-09-05T08:34:27.709Z,35.21
2022-09-05T08:35:49.309Z,36.27
2022-09-05T08:36:56.815Z,37.43
2022-09-05T08:37:59.703Z,37.29
2022-09-05T08:39:04.189Z,36.92
2022-09-05T08:40:29.053Z,37.13
2022-09-05T08:42:05.511Z,37.62
2022-09-05T08:46:37.879Z,36.68
2022-09-05T08:46:41.810Z,35.49
2022-09-05T08:46:49.789Z,35.80
2022-09-05T08:48:13.709Z,35.66
2022-09-05T08:49:46.147Z,35.41
2022-09-05T08:50:50.994Z,35.91
2022-09-05T08:51:57.105Z,36.88
2022-09-05T08:53:28.169Z,35.53
2022-09-05T08:55:07.321Z,36.09
2022-09-05T08:56:20.835Z,36.24
2022-09-05T08:57:51.633Z,36.17
2022-09-05T08:59:31.457Z,35.84
2022-09-05T09:00:42.894Z,35.50
2022-09-05T09:02:45.524Z,36.07
2022-09-05T09:03:29.271Z,35.70
2022-09-05T09:05:02.250Z,35.33
2022-09-05T09:06:27.928Z,35.67
2022-09-05T09:07:51.498Z,36.64
2022-09-05T09:09:05.330Z,36.20
2022-09-05T09:10:13.377Z,35.18
2022-09-05T09:11:32.343Z,36.63
2022-09-05T09:12:53.068Z,37.22
2022-09-05T09:14:23.395Z,35.49
2022-09-05T09:15:35.289Z,36.40
2022-09-05T09:16:54.656Z,35.05
2022-09-05T09:17:56.299Z,34.79
2022-09-05T09:18:57.791Z,35.13
2022-09-05T09:20:24.068Z,35.75
2022-09-05T09:21:38.630Z,34.41
2022-09-05T09:22:54.065Z,33.04
2022-09-05T09:24:17.143Z,33.48
2022-09-05T09:25:50.076Z,33.74
2022-09-05T09:26:59.913Z,33.04
2022-09-05T09:28:48.631Z,32.89
2022-09-05T09:29:40.279Z,33.43
2022-09-05T09:30:47.462Z,32.70
2022-09-05T09:32:04.874Z,33.58
2022-09-05T09:33:09.327Z,32.27
2022-09-05T09:34:32.981Z,31.43
2022-09-05T09:35:56.687Z,32.65
2022-09-05T09:37:51.893Z,32.17
2022-09-05T09:39:38.802Z,30.88
2022-09-05T09:41:08.063Z,31.17
2022-09-05T09:42:37.445Z,31.33
2022-09-05T09:44:11.532Z,32.36
2022-09-05T09:45:38.792Z,32.58
2022-09-05T09:46:48.255Z,32.13
2022-09-05T09:47:50.004Z,31.16
2022-09-05T09:49:21.608Z,31.23
2022-09-05T09:50:24.962Z,31.37
2022-09-05T09:51:41.852Z,32.62
2022-09-05T09:53:14.982Z,33.88
2022-09-05T09:54:39.777Z,30.83
2022-09-05T09:55:54.708Z,29.93
2022-09-05T09:57:08.982Z,30.08
2022-09-05T09:58:54.615Z,29.83
2022-09-05T10:00:15.020Z,29.18
2022-09-05T10:01:35.866Z,29.05
2022-09-05T10:07:26.908Z,28.62
2022-09-05T10:10:35.948Z,29.77
2022-09-05T10:10:43.513Z,26.92
2022-09-05T10:10:59.635Z,28.01
2022-09-05T10:11:18.899Z,28.65
2022-09-05T10:11:55.239Z,27.04
2022-09-05T10:13:13.600Z,25.87
2022-09-05T10:14:49.931Z,26.67
2022-09-05T10:16:21.762Z,29.13
2022-09-05T10:17:31.985Z,28.53
2022-09-05T10:19:02.431Z,28.73
2022-09-05T10:20:11.508Z,29.25
2022-09-05T10:23:47.561Z,27.80
2022-09-05T10:25:18.616Z,27.83
2022-09-05T10:26:39.646Z,28.11
2022-09-05T10:28:02.951Z,28.92
2022-09-05T10:29:37.863Z,27.33
2022-09-05T10:31:18.311Z,26.74
2022-09-05T10:34:59.393Z,28.09
2022-09-05T10:35:17.846Z,26.91
2022-09-05T10:35:25.094Z,26.96
2022-09-05T10:36:28.803Z,28.05
2022-09-05T10:37:42.311Z,27.23
2022-09-05T10:38:46.364Z,28.26
2022-09-05T10:39:53.568Z,29.50
2022-09-05T10:41:20.974Z,29.92
2022-09-05T10:42:43.523Z,29.19
2022-09-05T10:44:04.449Z,27.92
2022-09-05T10:45:16.567Z,27.84
2022-09-05T10:46:50.230Z,26.80
2022-09-05T10:48:13.767Z,24.54
2022-09-05T10:49:16.533Z,27.13
2022-09-05T10:50:36.573Z,26.28
2022-09-05T10:51:52.118Z,25.99
2022-09-05T10:53:20.492Z,26.93
2022-09-05T10:54:35.607Z,27.59
2022-09-05T10:55:59.177Z,26.58
2022-09-05T10:57:28.140Z,28.58
2022-09-05T10:59:54.156Z,28.11
2022-09-05T11:02:27.155Z,26.70
2022-09-05T11:02:28.640Z,27.04
2022-09-05T11:03:01.276Z,26.44
2022-09-05T11:04:05.795Z,25.88
2022-09-05T11:05:23.064Z,25.50
2022-09-05T11:06:44.930Z,25.57
2022-09-05T11:07:59.221Z,24.88
2022-09-05T11:09:27.406Z,25.02
2022-09-05T11:10:31.865Z,26.78
2022-09-05T11:11:45.861Z,28.25
2022-09-05T11:13:15.283Z,28.88
2022-09-05T11:14:49.302Z,26.17
2022-09-05T11:16:04.581Z,26.36
2022-09-05T11:17:12.569Z,25.38
2022-09-05T11:18:54.929Z,25.91
2022-09-05T11:20:34.617Z,26.19
2022-09-05T11:22:23.041Z,26.56
2022-09-05T11:23:56.843Z,27.34
2022-09-05T11:25:03.070Z,26.65
2022-09-05T11:26:08.708Z,27.66
2022-09-05T11:27:25.164Z,27.15
2022-09-05T11:29:00.428Z,26.36
2022-09-05T11:30:07.143Z,25.64
2022-09-05T11:31:15.577Z,26.23
2022-09-05T11:36:06.930Z,24.75
2022-09-05T11:39:45.855Z,23.99
2022-09-05T11:39:52.515Z,24.19
2022-09-05T11:40:07.646Z,24.81
2022-09-05T11:40:09.703Z,25.46
2022-09-05T11:41:22.236Z,24.10
2022-09-05T11:42:40.781Z,24.31
2022-09-05T11:43:48.111Z,25.05
2022-09-05T11:45:19.043Z,26.28
2022-09-05T11:46:30.207Z,24.20
2022-09-05T11:48:27.635Z,26.24
2022-09-05T11:49:42.935Z,25.62
2022-09-05T11:51:09.216Z,24.35
2022-09-05T11:52:44.724Z,25.23
2022-09-05T11:54:21.546Z,26.44
2022-09-05T11:55:53.919Z,25.81
2022-09-05T11:57:32.638Z,26.09
2022-09-05T11:58:45.183Z,26.45
2022-09-05T12:00:32.854Z,25.77
2022-09-05T12:02:23.578Z,24.42
2022-09-05T12:04:01.083Z,24.85
2022-09-05T12:05:48.993Z,24.72
2022-09-05T12:06:39.540Z,24.12
2022-09-05T12:08:17.982Z,24.08
2022-09-05T12:09:50.208Z,24.54
2022-09-05T12:11:03.797Z,23.92
2022-09-05T12:12:18.859Z,25.15
2022-09-05T12:13:51.393Z,25.58
2022-09-05T12:14:59.018Z,24.87
2022-09-05T12:16:08.355Z,25.58
2022-09-05T12:17:35.228Z,25.13
2022-09-05T12:18:51.523Z,25.01
2022-09-05T12:19:59.352Z,25.61
2022-09-05T12:21:25.256Z,24.81
2022-09-05T12:22:29.836Z,24.90
2022-09-05T12:24:11.571Z,25.53
2022-09-05T12:27:38.200Z,24.07
2022-09-05T12:27:41.542Z,24.44
2022-09-05T12:29:33.658Z,24.50
2022-09-05T12:30:30.073Z,25.84
2022-09-05T12:32:31.021Z,25.76
2022-09-05T12:36:05.625Z,25.58
2022-09-05T12:36:08.279Z,25.18
2022-09-05T12:40:03.171Z,25.67
2022-09-05T12:40:30.241Z,25.66
2022-09-05T12:41:37.435Z,25.15
2022-09-05T12:42:11.535Z,26.36
2022-09-05T12:43:52.993Z,25.66
2022-09-05T12:44:45.036Z,25.60
2022-09-05T12:46:05.685Z,25.59
2022-09-05T12:47:19.344Z,25.75
2022-09-05T12:48:39.120Z,25.87
2022-09-05T12:50:02.483Z,25.21
2022-09-05T12:51:45.392Z,23.92
2022-09-05T12:53:01.851Z,23.77
2022-09-05T12:54:32.879Z,24.03
2022-09-05T12:56:32.253Z,22.99
2022-09-05T13:02:55.215Z,23.94
2022-09-05T13:03:07.541Z,24.18
2022-09-05T13:03:09.451Z,23.65
2022-09-05T13:03:12.525Z,24.07
2022-09-05T13:03:40.500Z,23.80
2022-09-05T13:04:47.355Z,24.68
2022-09-05T13:06:25.396Z,23.45
2022-09-05T13:07:40.298Z,24.12
2022-09-05T13:08:49.059Z,23.32
2022-09-05T13:12:35.776Z,24.43
2022-09-05T13:14:50.393Z,24.95
2022-09-05T13:14:50.629Z,24.51
2022-09-05T13:15:18.786Z,25.06
2022-09-05T13:16:26.431Z,24.58
2022-09-05T13:17:44.559Z,24.80
2022-09-05T13:18:47.929Z,25.39
2022-09-05T13:19:51.805Z,24.94
2022-09-05T13:20:56.272Z,24.98
2022-09-05T13:22:02.175Z,24.25
2022-09-05T13:23:27.466Z,23.34
2022-09-05T13:24:41.700Z,22.72
2022-09-05T13:25:56.280Z,23.27
2022-09-05T13:27:08.620Z,22.65
2022-09-05T13:28:14.247Z,23.48
2022-09-05T13:29:22.100Z,23.22
2022-09-05T13:34:07.215Z,22.63
2022-09-05T13:38:02.742Z,22.34
2022-09-05T13:38:04.722Z,23.10
2022-09-05T13:38:14.613Z,22.41
2022-09-05T13:38:16.289Z,22.15
2022-09-05T13:38:19.874Z,22.43
2022-09-05T13:39:12.114Z,23.60
2022-09-05T13:40:25.092Z,22.73
2022-09-05T13:41:32.480Z,22.52
2022-09-05T13:42:40.250Z,22.07
2022-09-05T13:43:44.470Z,21.33
2022-09-05T13:44:47.992Z,22.29
2022-09-05T13:46:17.098Z,21.98
2022-09-05T13:47:55.899Z,22.81
2022-09-05T13:50:43.773Z,23.10
2022-09-05T13:51:56.242Z,22.52
2022-09-05T13:53:26.187Z,22.45
2022-09-05T13:54:42.634Z,22.68
2022-09-05T13:56:02.960Z,22.23
2022-09-05T13:57:32.352Z,21.99
2022-09-05T13:58:56.693Z,21.41
2022-09-05T14:00:28.231Z,21.50
2022-09-05T14:02:25.131Z,21.88
2022-09-05T14:03:31.567Z,21.38
2022-09-05T14:05:19.552Z,22.02
2022-09-05T14:06:52.520Z,23.34
2022-09-05T14:08:21.840Z,22.93
2022-09-05T14:09:44.538Z,22.19
2022-09-05T14:11:02.338Z,22.85
2022-09-05T14:12:33.440Z,23.27
2022-09-05T14:14:09.218Z,23.15
2022-09-05T14:15:52.637Z,23.94
2022-09-05T14:19:07.230Z,23.35
2022-09-05T14:20:28.814Z,23.51
2022-09-05T14:21:36.838Z,24.57
2022-09-05T14:22:45.419Z,25.80
2022-09-05T14:23:56.665Z,25.79
2022-09-05T14:25:00.240Z,24.90
2022-09-05T14:26:14.829Z,24.96
2022-09-05T14:27:31.728Z,25.71
2022-09-05T14:28:46.631Z,24.68
2022-09-05T14:29:53.942Z,25.25
2022-09-05T14:34:30.983Z,27.03
2022-09-05T14:37:35.482Z,27.12
2022-09-05T14:37:44.464Z,26.63
2022-09-05T14:37:44.971Z,26.25
2022-09-05T14:38:09.559Z,26.61
2022-09-05T14:39:30.384Z,25.96
2022-09-05T14:40:38.330Z,26.57
2022-09-05T14:41:42.823Z,27.53
2022-09-05T14:43:26.969Z,28.01
2022-09-05T14:44:59.163Z,28.37
2022-09-05T14:46:24.104Z,28.58
2022-09-05T14:47:47.491Z,29.69
2022-09-05T14:49:18.317Z,30.72
2022-09-05T14:50:29.204Z,31.26
2022-09-05T14:51:39.643Z,31.78
2022-09-05T14:56:59.741Z,32.22
2022-09-05T15:02:39.642Z,32.11
2022-09-05T15:02:44.573Z,32.78
2022-09-05T15:02:45.054Z,33.44
2022-09-05T15:02:50.549Z,32.93
2022-09-05T15:05:16.123Z,32.71
2022-09-05T15:06:21.344Z,33.50
2022-09-05T15:07:34.030Z,33.39
2022-09-05T15:10:51.078Z,33.39
2022-09-05T15:12:15.087Z,33.55
2022-09-05T15:12:27.763Z,33.71
2022-09-05T15:13:11.810Z,33.81
2022-09-05T15:14:18.576Z,34.46
2022-09-05T15:15:28.973Z,35.05
2022-09-05T15:16:38.590Z,34.01
2022-09-05T15:17:47.908Z,33.97
2022-09-05T15:18:50.753Z,35.43
2022-09-05T15:20:06.428Z,34.99
2022-09-05T15:21:35.278Z,35.38
2022-09-05T15:22:41.890Z,36.60
2022-09-05T15:23:56.556Z,35.30
2022-09-05T15:25:16.774Z,35.14
2022-09-05T15:26:25.856Z,35.01
2022-09-05T15:27:29.530Z,35.57
2022-09-05T15:28:36.903Z,35.89
2022-09-05T15:29:38.573Z,36.64
2022-09-05T15:30:55.472Z,35.70
2022-09-05T15:32:15.153Z,35.54
2022-09-05T15:33:25.189Z,36.34
2022-09-05T15:34:32.839Z,35.92
2022-09-05T15:35:40.075Z,36.18
2022-09-05T15:36:41.664Z,36.15
2022-09-05T15:37:44.981Z,35.86
2022-09-05T15:38:55.931Z,37.33
2022-09-05T15:40:07.763Z,36.42
2022-09-05T15:41:29.005Z,35.46
2022-09-05T15:42:33.960Z,35.06
2022-09-05T15:43:52.052Z,35.37
2022-09-05T15:45:16.503Z,37.18
2022-09-05T15:46:29.576Z,36.71
2022-09-05T15:47:38.164Z,35.09
2022-09-05T15:48:39.869Z,35.66
2022-09-05T15:49:55.657Z,34.93
2022-09-05T15:50:59.804Z,35.16
2022-09-05T15:52:31.158Z,37.08
2022-09-05T15:53:37.585Z,36.75
2022-09-05T15:54:57.719Z,37.74
2022-09-05T15:56:18.976Z,38.22
2022-09-05T15:57:29.398Z,38.04
2022-09-05T15:58:32.790Z,38.01
2022-09-05T16:00:01.015Z,38.79
2022-09-05T16:01:30.502Z,39.18
2022-09-05T16:02:42.945Z,37.52
2022-09-05T16:08:58.127Z,39.88
2022-09-05T16:10:28.966Z,38.04
2022-09-05T16:10:31.699Z,39.32
2022-09-05T16:10:35.759Z,39.12
2022-09-05T16:10:44.810Z,39.88
2022-09-05T16:12:03.029Z,37.01
2022-09-05T16:12:48.775Z,37.63
2022-09-05T16:13:54.450Z,35.81
2022-09-05T16:17:18.406Z,36.29
2022-09-05T16:23:17.310Z,38.08
2022-09-05T16:23:18.010Z,37.25
2022-09-05T16:23:26.207Z,39.04
2022-09-05T16:23:29.701Z,39.18
2022-09-05T16:23:34.528Z,36.46
2022-09-05T16:24:05.365Z,38.36
2022-09-05T16:25:12.029Z,38.18
2022-09-05T16:26:26.107Z,39.05
2022-09-05T16:27:37.151Z,39.99
2022-09-05T16:28:51.455Z,38.91
2022-09-05T16:29:53.197Z,39.14
2022-09-05T16:31:19.719Z,40.02
2022-09-05T16:32:25.878Z,38.96
2022-09-05T16:33:30.985Z,40.32
2022-09-05T16:35:00.153Z,40.29
2022-09-05T16:36:16.116Z,40.68
2022-09-05T16:37:21.188Z,41.44
2022-09-05T16:38:50.398Z,40.98
2022-09-05T16:40:13.870Z,39.82
2022-09-05T16:41:15.489Z,42.48
2022-09-05T16:42:45.966Z,44.43
2022-09-05T16:43:55.038Z,40.19
2022-09-05T16:45:16.301Z,41.67
2022-09-05T16:46:36.102Z,42.04
2022-09-05T16:47:50.907Z,39.18
2022-09-05T16:49:03.152Z,40.41
2022-09-05T16:50:36.850Z,42.18
2022-09-05T16:51:44.235Z,41.52
2022-09-05T16:52:53.661Z,43.58
2022-09-05T16:54:13.940Z,42.70
2022-09-05T16:55:43.315Z,44.09
2022-09-05T16:56:52.314Z,43.88
2022-09-05T16:58:30.725Z,44.62
2022-09-05T16:59:35.798Z,44.06
2022-09-05T17:00:54.431Z,44.39
2022-09-05T17:02:15.456Z,44.95
2022-09-05T17:03:29.604Z,43.71
2022-09-05T17:05:04.619Z,42.91
2022-09-05T17:06:26.333Z,44.70
2022-09-05T17:07:59.184Z,44.24
2022-09-05T17:09:13.168Z,44.53
2022-09-05T17:10:24.238Z,44.44
2022-09-05T17:11:31.354Z,45.53
2022-09-05T17:12:35.291Z,45.08
2022-09-05T17:13:36.837Z,44.42
2022-09-05T17:14:51.373Z,45.10
2022-09-05T17:15:54.113Z,45.81
2022-09-05T17:16:59.303Z,45.42
2022-09-05T17:18:24.265Z,45.06
2022-09-05T17:19:40.380Z,46.25
2022-09-05T17:21:02.633Z,46.94
2022-09-05T17:24:59.603Z,48.71
2022-09-05T17:26:36.987Z,50.54
2022-09-05T17:29:29.821Z,51.49
2022-09-05T17:29:32.752Z,55.92
2022-09-05T17:29:35.093Z,53.21
2022-09-05T17:32:19.318Z,56.24
2022-09-05T17:33:27.212Z,55.78
2022-09-05T17:34:50.800Z,55.76
2022-09-05T17:36:07.764Z,58.17
2022-09-05T17:37:35.271Z,61.45
2022-09-05T17:38:36.777Z,61.66
2022-09-05T17:39:59.528Z,62.71
2022-09-05T17:41:19.618Z,61.86
2022-09-05T17:42:36.502Z,62.02
2022-09-05T17:43:40.427Z,62.02
2022-09-05T17:44:45.488Z,63.55
2022-09-05T17:46:11.693Z,62.63
2022-09-05T17:47:35.731Z,64.43
2022-09-05T17:49:02.576Z,64.13
2022-09-05T17:50:33.638Z,62.99
2022-09-05T17:51:35.257Z,62.93